sensor_id;sensor_type;location;lat;lon;timestamp;P1;durP1;ratioP1;P2;durP2;ratioP2
20776;SDS011;10548;47.504;8.248;2023-11-22T00:01:10;3.87;;;2.50;;
20776;SDS011;10548;47.504;8.248;2023-11-22T00:03:38;2.97;;;2.00;;
20776;SDS011;10548;47.504;8.248;2023-11-22T00:06:06;2.90;;;2.10;;
20776;SDS011;10548;47.504;8.248;2023-11-22T00:08:33;2.43;;;1.50;;
20776;SDS011;10548;47.504;8.248;2023-11-22T00:11:01;6.03;;;2.13;;
20776;SDS011;10548;47.504;8.248;2023-11-22T00:13:31;3.70;;;1.60;;
20776;SDS011;10548;47.504;8.248;2023-11-22T00:15:59;3.07;;;1.73;;
20776;SDS011;10548;47.504;8.248;2023-11-22T00:18:27;3.83;;;1.70;;
20776;SDS011;10548;47.504;8.248;2023-11-22T00:20:54;4.10;;;1.60;;
20776;SDS011;10548;47.504;8.248;2023-11-22T00:23:22;2.07;;;1.83;;
20776;SDS011;10548;47.504;8.248;2023-11-22T00:25:54;4.37;;;1.80;;
20776;SDS011;10548;47.504;8.248;2023-11-22T00:28:21;4.53;;;1.90;;
20776;SDS011;10548;47.504;8.248;2023-11-22T00:30:49;2.57;;;1.90;;
20776;SDS011;10548;47.504;8.248;2023-11-22T00:33:17;3.47;;;1.83;;
20776;SDS011;10548;47.504;8.248;2023-11-22T00:35:46;3.10;;;1.70;;
20776;SDS011;10548;47.504;8.248;2023-11-22T00:38:14;4.10;;;1.80;;
20776;SDS011;10548;47.504;8.248;2023-11-22T00:40:41;3.60;;;2.07;;
20776;SDS011;10548;47.504;8.248;2023-11-22T00:43:09;3.13;;;1.80;;
20776;SDS011;10548;47.504;8.248;2023-11-22T00:45:36;2.30;;;1.80;;
20776;SDS011;10548;47.504;8.248;2023-11-22T00:48:04;2.20;;;1.87;;
20776;SDS011;10548;47.504;8.248;2023-11-22T00:50:31;3.97;;;1.80;;
20776;SDS011;10548;47.504;8.248;2023-11-22T00:52:59;4.10;;;1.90;;
20776;SDS011;10548;47.504;8.248;2023-11-22T00:55:26;3.27;;;2.03;;
20776;SDS011;10548;47.504;8.248;2023-11-22T00:57:54;3.20;;;1.97;;
20776;SDS011;10548;47.504;8.248;2023-11-22T01:00:23;2.60;;;1.90;;
20776;SDS011;10548;47.504;8.248;2023-11-22T01:02:51;3.00;;;2.20;;
20776;SDS011;10548;47.504;8.248;2023-11-22T01:05:19;3.83;;;2.00;;
20776;SDS011;10548;47.504;8.248;2023-11-22T01:07:47;4.77;;;2.73;;
20776;SDS011;10548;47.504;8.248;2023-11-22T01:10:14;8.13;;;2.60;;
20776;SDS011;10548;47.504;8.248;2023-11-22T01:12:42;5.17;;;2.40;;
20776;SDS011;10548;47.504;8.248;2023-11-22T01:15:10;5.83;;;2.70;;
20776;SDS011;10548;47.504;8.248;2023-11-22T01:17:38;3.37;;;2.40;;
20776;SDS011;10548;47.504;8.248;2023-11-22T01:20:07;2.57;;;2.00;;
20776;SDS011;10548;47.504;8.248;2023-11-22T01:22:37;3.27;;;2.00;;
20776;SDS011;10548;47.504;8.248;2023-11-22T01:25:04;6.73;;;2.30;;
20776;SDS011;10548;47.504;8.248;2023-11-22T01:27:33;3.30;;;2.10;;
20776;SDS011;10548;47.504;8.248;2023-11-22T01:30:00;9.97;;;2.60;;
20776;SDS011;10548;47.504;8.248;2023-11-22T01:32:32;6.00;;;2.20;;
20776;SDS011;10548;47.504;8.248;2023-11-22T01:35:00;5.67;;;2.83;;
20776;SDS011;10548;47.504;8.248;2023-11-22T01:37:27;4.43;;;2.77;;
20776;SDS011;10548;47.504;8.248;2023-11-22T01:39:55;3.40;;;2.43;;
20776;SDS011;10548;47.504;8.248;2023-11-22T01:42:22;4.63;;;2.33;;
20776;SDS011;10548;47.504;8.248;2023-11-22T01:44:51;4.60;;;1.80;;
20776;SDS011;10548;47.504;8.248;2023-11-22T01:47:19;4.27;;;2.00;;
20776;SDS011;10548;47.504;8.248;2023-11-22T01:49:47;3.80;;;2.40;;
20776;SDS011;10548;47.504;8.248;2023-11-22T01:52:14;3.00;;;2.20;;
20776;SDS011;10548;47.504;8.248;2023-11-22T01:54:42;4.27;;;2.50;;
20776;SDS011;10548;47.504;8.248;2023-11-22T01:57:10;4.47;;;2.40;;
20776;SDS011;10548;47.504;8.248;2023-11-22T01:59:39;8.60;;;2.80;;
20776;SDS011;10548;47.504;8.248;2023-11-22T02:02:07;5.63;;;2.60;;
20776;SDS011;10548;47.504;8.248;2023-11-22T02:04:35;5.27;;;2.73;;
20776;SDS011;10548;47.504;8.248;2023-11-22T02:07:03;5.57;;;2.63;;
20776;SDS011;10548;47.504;8.248;2023-11-22T02:09:31;5.10;;;2.00;;
20776;SDS011;10548;47.504;8.248;2023-11-22T02:11:59;3.60;;;2.20;;
20776;SDS011;10548;47.504;8.248;2023-11-22T02:14:27;8.33;;;2.97;;
20776;SDS011;10548;47.504;8.248;2023-11-22T02:16:55;7.00;;;2.77;;
20776;SDS011;10548;47.504;8.248;2023-11-22T02:19:22;4.33;;;2.50;;
20776;SDS011;10548;47.504;8.248;2023-11-22T02:21:50;4.10;;;2.37;;
20776;SDS011;10548;47.504;8.248;2023-11-22T02:24:19;3.23;;;2.10;;
20776;SDS011;10548;47.504;8.248;2023-11-22T02:26:46;4.37;;;2.40;;
20776;SDS011;10548;47.504;8.248;2023-11-22T02:29:14;3.40;;;2.07;;
20776;SDS011;10548;47.504;8.248;2023-11-22T02:31:42;8.80;;;2.30;;
20776;SDS011;10548;47.504;8.248;2023-11-22T02:34:10;6.30;;;2.30;;
20776;SDS011;10548;47.504;8.248;2023-11-22T02:36:38;4.33;;;2.30;;
20776;SDS011;10548;47.504;8.248;2023-11-22T02:39:08;4.07;;;1.97;;
20776;SDS011;10548;47.504;8.248;2023-11-22T02:41:36;6.13;;;2.50;;
20776;SDS011;10548;47.504;8.248;2023-11-22T02:44:04;3.53;;;2.30;;
20776;SDS011;10548;47.504;8.248;2023-11-22T02:46:33;2.83;;;2.00;;
20776;SDS011;10548;47.504;8.248;2023-11-22T02:49:01;5.43;;;2.37;;
20776;SDS011;10548;47.504;8.248;2023-11-22T02:51:29;5.73;;;2.33;;
20776;SDS011;10548;47.504;8.248;2023-11-22T02:53:57;5.13;;;2.27;;
20776;SDS011;10548;47.504;8.248;2023-11-22T02:56:26;4.47;;;2.40;;
20776;SDS011;10548;47.504;8.248;2023-11-22T02:58:53;3.77;;;2.00;;
20776;SDS011;10548;47.504;8.248;2023-11-22T03:01:22;4.43;;;1.93;;
20776;SDS011;10548;47.504;8.248;2023-11-22T03:03:52;3.50;;;1.57;;
20776;SDS011;10548;47.504;8.248;2023-11-22T03:06:19;2.60;;;1.87;;
20776;SDS011;10548;47.504;8.248;2023-11-22T03:08:47;5.70;;;2.50;;
20776;SDS011;10548;47.504;8.248;2023-11-22T03:11:15;3.87;;;2.40;;
20776;SDS011;10548;47.504;8.248;2023-11-22T03:13:44;4.07;;;2.33;;
20776;SDS011;10548;47.504;8.248;2023-11-22T03:16:12;4.13;;;2.37;;
20776;SDS011;10548;47.504;8.248;2023-11-22T03:18:41;6.90;;;2.50;;
20776;SDS011;10548;47.504;8.248;2023-11-22T03:21:08;5.43;;;2.47;;
20776;SDS011;10548;47.504;8.248;2023-11-22T03:23:37;2.37;;;2.00;;
20776;SDS011;10548;47.504;8.248;2023-11-22T03:26:07;4.93;;;2.07;;
20776;SDS011;10548;47.504;8.248;2023-11-22T03:28:36;6.07;;;2.27;;
20776;SDS011;10548;47.504;8.248;2023-11-22T03:31:05;6.60;;;1.97;;
20776;SDS011;10548;47.504;8.248;2023-11-22T03:33:34;3.97;;;2.13;;
20776;SDS011;10548;47.504;8.248;2023-11-22T03:36:03;5.03;;;2.17;;
20776;SDS011;10548;47.504;8.248;2023-11-22T03:38:32;7.07;;;2.23;;
20776;SDS011;10548;47.504;8.248;2023-11-22T03:41:00;6.43;;;2.50;;
20776;SDS011;10548;47.504;8.248;2023-11-22T03:43:27;7.13;;;2.70;;
20776;SDS011;10548;47.504;8.248;2023-11-22T03:45:55;4.93;;;2.00;;
20776;SDS011;10548;47.504;8.248;2023-11-22T03:48:23;3.83;;;1.90;;
20776;SDS011;10548;47.504;8.248;2023-11-22T03:50:52;4.60;;;2.20;;
20776;SDS011;10548;47.504;8.248;2023-11-22T03:53:20;6.17;;;2.13;;
20776;SDS011;10548;47.504;8.248;2023-11-22T03:55:49;5.87;;;2.50;;
20776;SDS011;10548;47.504;8.248;2023-11-22T03:58:17;5.73;;;2.20;;
20776;SDS011;10548;47.504;8.248;2023-11-22T04:00:44;4.43;;;2.07;;
20776;SDS011;10548;47.504;8.248;2023-11-22T04:03:12;7.47;;;2.57;;
20776;SDS011;10548;47.504;8.248;2023-11-22T04:05:40;8.00;;;2.10;;
20776;SDS011;10548;47.504;8.248;2023-11-22T04:08:08;6.07;;;2.00;;
20776;SDS011;10548;47.504;8.248;2023-11-22T04:10:36;5.70;;;2.10;;
20776;SDS011;10548;47.504;8.248;2023-11-22T04:13:04;6.83;;;2.10;;
20776;SDS011;10548;47.504;8.248;2023-11-22T04:15:31;5.60;;;2.23;;
20776;SDS011;10548;47.504;8.248;2023-11-22T04:18:00;6.10;;;2.03;;
20776;SDS011;10548;47.504;8.248;2023-11-22T04:20:28;3.30;;;2.10;;
20776;SDS011;10548;47.504;8.248;2023-11-22T04:22:55;5.30;;;2.00;;
20776;SDS011;10548;47.504;8.248;2023-11-22T04:25:23;4.97;;;2.27;;
20776;SDS011;10548;47.504;8.248;2023-11-22T04:27:51;5.57;;;2.50;;
20776;SDS011;10548;47.504;8.248;2023-11-22T04:30:18;5.47;;;2.10;;
20776;SDS011;10548;47.504;8.248;2023-11-22T04:32:46;4.93;;;2.00;;
20776;SDS011;10548;47.504;8.248;2023-11-22T04:35:14;5.47;;;1.90;;
20776;SDS011;10548;47.504;8.248;2023-11-22T04:37:42;6.33;;;2.30;;
20776;SDS011;10548;47.504;8.248;2023-11-22T04:40:10;5.30;;;2.13;;
20776;SDS011;10548;47.504;8.248;2023-11-22T04:42:39;6.23;;;2.10;;
20776;SDS011;10548;47.504;8.248;2023-11-22T04:45:07;6.70;;;2.20;;
20776;SDS011;10548;47.504;8.248;2023-11-22T04:47:36;5.77;;;2.33;;
20776;SDS011;10548;47.504;8.248;2023-11-22T04:50:04;6.80;;;2.40;;
20776;SDS011;10548;47.504;8.248;2023-11-22T04:52:32;4.93;;;2.60;;
20776;SDS011;10548;47.504;8.248;2023-11-22T04:55:00;2.70;;;2.07;;
20776;SDS011;10548;47.504;8.248;2023-11-22T04:57:27;5.27;;;2.30;;
20776;SDS011;10548;47.504;8.248;2023-11-22T04:59:55;9.07;;;2.20;;
20776;SDS011;10548;47.504;8.248;2023-11-22T05:02:22;6.70;;;2.27;;
20776;SDS011;10548;47.504;8.248;2023-11-22T05:04:50;5.23;;;2.10;;
20776;SDS011;10548;47.504;8.248;2023-11-22T05:07:19;5.10;;;2.30;;
20776;SDS011;10548;47.504;8.248;2023-11-22T05:09:46;4.37;;;2.30;;
20776;SDS011;10548;47.504;8.248;2023-11-22T05:12:14;3.70;;;1.90;;
20776;SDS011;10548;47.504;8.248;2023-11-22T05:14:41;4.63;;;2.20;;
20776;SDS011;10548;47.504;8.248;2023-11-22T05:17:10;4.00;;;1.83;;
20776;SDS011;10548;47.504;8.248;2023-11-22T05:19:38;5.40;;;2.20;;
20776;SDS011;10548;47.504;8.248;2023-11-22T05:22:05;6.73;;;2.13;;
20776;SDS011;10548;47.504;8.248;2023-11-22T05:24:34;6.53;;;2.17;;
20776;SDS011;10548;47.504;8.248;2023-11-22T05:27:01;3.67;;;1.80;;
20776;SDS011;10548;47.504;8.248;2023-11-22T05:29:29;5.10;;;1.70;;
20776;SDS011;10548;47.504;8.248;2023-11-22T05:32:08;6.67;;;2.00;;
20776;SDS011;10548;47.504;8.248;2023-11-22T05:34:36;4.30;;;1.90;;
20776;SDS011;10548;47.504;8.248;2023-11-22T05:37:07;3.10;;;1.83;;
20776;SDS011;10548;47.504;8.248;2023-11-22T05:39:35;5.70;;;1.67;;
20776;SDS011;10548;47.504;8.248;2023-11-22T05:42:03;4.53;;;2.30;;
20776;SDS011;10548;47.504;8.248;2023-11-22T05:44:31;2.37;;;1.90;;
20776;SDS011;10548;47.504;8.248;2023-11-22T05:46:59;2.97;;;1.70;;
20776;SDS011;10548;47.504;8.248;2023-11-22T05:49:26;7.07;;;2.30;;
20776;SDS011;10548;47.504;8.248;2023-11-22T05:51:54;4.03;;;2.60;;
20776;SDS011;10548;47.504;8.248;2023-11-22T05:54:22;3.30;;;2.13;;
20776;SDS011;10548;47.504;8.248;2023-11-22T05:56:49;3.70;;;1.70;;
20776;SDS011;10548;47.504;8.248;2023-11-22T05:59:17;5.33;;;2.37;;
20776;SDS011;10548;47.504;8.248;2023-11-22T06:01:45;3.07;;;1.60;;
20776;SDS011;10548;47.504;8.248;2023-11-22T06:04:12;2.40;;;1.63;;
20776;SDS011;10548;47.504;8.248;2023-11-22T06:06:40;4.57;;;1.90;;
20776;SDS011;10548;47.504;8.248;2023-11-22T06:09:07;1.87;;;1.30;;
20776;SDS011;10548;47.504;8.248;2023-11-22T06:11:38;4.07;;;1.80;;
20776;SDS011;10548;47.504;8.248;2023-11-22T06:14:06;3.27;;;1.63;;
20776;SDS011;10548;47.504;8.248;2023-11-22T06:16:34;4.47;;;1.40;;
20776;SDS011;10548;47.504;8.248;2023-11-22T06:19:01;1.80;;;1.37;;
20776;SDS011;10548;47.504;8.248;2023-11-22T06:21:29;3.57;;;1.43;;
20776;SDS011;10548;47.504;8.248;2023-11-22T06:23:56;1.60;;;1.50;;
20776;SDS011;10548;47.504;8.248;2023-11-22T06:26:25;1.60;;;1.33;;
20776;SDS011;10548;47.504;8.248;2023-11-22T06:28:52;1.97;;;1.40;;
20776;SDS011;10548;47.504;8.248;2023-11-22T06:31:20;2.30;;;2.10;;
20776;SDS011;10548;47.504;8.248;2023-11-22T06:33:47;2.17;;;1.77;;
20776;SDS011;10548;47.504;8.248;2023-11-22T06:36:15;4.00;;;2.20;;
20776;SDS011;10548;47.504;8.248;2023-11-22T06:38:42;3.43;;;2.13;;
20776;SDS011;10548;47.504;8.248;2023-11-22T06:41:10;2.77;;;2.10;;
20776;SDS011;10548;47.504;8.248;2023-11-22T06:43:38;2.70;;;2.20;;
20776;SDS011;10548;47.504;8.248;2023-11-22T06:46:05;3.37;;;2.00;;
20776;SDS011;10548;47.504;8.248;2023-11-22T06:48:33;2.77;;;2.40;;
20776;SDS011;10548;47.504;8.248;2023-11-22T06:51:00;3.73;;;2.57;;
20776;SDS011;10548;47.504;8.248;2023-11-22T06:53:28;3.40;;;2.40;;
20776;SDS011;10548;47.504;8.248;2023-11-22T06:55:56;2.50;;;2.30;;
20776;SDS011;10548;47.504;8.248;2023-11-22T06:58:24;2.87;;;2.43;;
20776;SDS011;10548;47.504;8.248;2023-11-22T07:00:51;5.97;;;2.70;;
20776;SDS011;10548;47.504;8.248;2023-11-22T07:03:19;2.90;;;2.43;;
20776;SDS011;10548;47.504;8.248;2023-11-22T07:05:48;2.00;;;1.80;;
20776;SDS011;10548;47.504;8.248;2023-11-22T07:08:17;2.50;;;2.10;;
20776;SDS011;10548;47.504;8.248;2023-11-22T07:10:45;4.70;;;1.97;;
20776;SDS011;10548;47.504;8.248;2023-11-22T07:13:13;3.13;;;2.00;;
20776;SDS011;10548;47.504;8.248;2023-11-22T07:15:40;2.07;;;1.60;;
20776;SDS011;10548;47.504;8.248;2023-11-22T07:18:07;2.00;;;1.80;;
20776;SDS011;10548;47.504;8.248;2023-11-22T07:20:36;2.10;;;1.90;;
20776;SDS011;10548;47.504;8.248;2023-11-22T07:23:05;2.33;;;1.60;;
20776;SDS011;10548;47.504;8.248;2023-11-22T07:25:33;1.90;;;1.70;;
20776;SDS011;10548;47.504;8.248;2023-11-22T07:28:01;5.67;;;1.87;;
20776;SDS011;10548;47.504;8.248;2023-11-22T07:30:28;2.53;;;1.77;;
20776;SDS011;10548;47.504;8.248;2023-11-22T07:32:57;2.23;;;1.97;;
20776;SDS011;10548;47.504;8.248;2023-11-22T07:35:26;2.20;;;1.80;;
20776;SDS011;10548;47.504;8.248;2023-11-22T07:37:55;4.33;;;1.70;;
20776;SDS011;10548;47.504;8.248;2023-11-22T07:40:24;3.20;;;1.93;;
20776;SDS011;10548;47.504;8.248;2023-11-22T07:42:52;1.90;;;1.50;;
20776;SDS011;10548;47.504;8.248;2023-11-22T07:45:21;2.60;;;1.47;;
20776;SDS011;10548;47.504;8.248;2023-11-22T07:47:49;1.67;;;1.47;;
20776;SDS011;10548;47.504;8.248;2023-11-22T07:50:19;1.60;;;1.30;;
20776;SDS011;10548;47.504;8.248;2023-11-22T07:52:48;1.37;;;1.10;;
20776;SDS011;10548;47.504;8.248;2023-11-22T07:55:17;1.73;;;1.20;;
20776;SDS011;10548;47.504;8.248;2023-11-22T07:57:44;1.47;;;1.30;;
20776;SDS011;10548;47.504;8.248;2023-11-22T08:00:12;1.83;;;1.50;;
20776;SDS011;10548;47.504;8.248;2023-11-22T08:02:40;1.60;;;1.50;;
20776;SDS011;10548;47.504;8.248;2023-11-22T08:05:10;3.60;;;1.40;;
20776;SDS011;10548;47.504;8.248;2023-11-22T08:07:39;2.17;;;1.73;;
20776;SDS011;10548;47.504;8.248;2023-11-22T08:10:08;2.40;;;1.67;;
20776;SDS011;10548;47.504;8.248;2023-11-22T08:12:36;3.57;;;1.93;;
20776;SDS011;10548;47.504;8.248;2023-11-22T08:15:04;3.67;;;2.23;;
20776;SDS011;10548;47.504;8.248;2023-11-22T08:17:32;2.27;;;1.60;;
20776;SDS011;10548;47.504;8.248;2023-11-22T08:19:59;1.90;;;1.60;;
20776;SDS011;10548;47.504;8.248;2023-11-22T08:22:27;2.13;;;1.70;;
20776;SDS011;10548;47.504;8.248;2023-11-22T08:24:55;2.43;;;1.90;;
20776;SDS011;10548;47.504;8.248;2023-11-22T08:27:24;2.17;;;1.80;;
20776;SDS011;10548;47.504;8.248;2023-11-22T08:29:51;2.57;;;1.80;;
20776;SDS011;10548;47.504;8.248;2023-11-22T08:32:19;2.60;;;2.07;;
20776;SDS011;10548;47.504;8.248;2023-11-22T08:34:50;5.10;;;2.10;;
20776;SDS011;10548;47.504;8.248;2023-11-22T08:37:18;2.93;;;1.80;;
20776;SDS011;10548;47.504;8.248;2023-11-22T08:39:45;3.20;;;2.33;;
20776;SDS011;10548;47.504;8.248;2023-11-22T08:42:14;3.03;;;1.60;;
20776;SDS011;10548;47.504;8.248;2023-11-22T08:44:44;2.37;;;1.87;;
20776;SDS011;10548;47.504;8.248;2023-11-22T08:47:12;2.07;;;1.87;;
20776;SDS011;10548;47.504;8.248;2023-11-22T08:49:39;4.03;;;2.10;;
20776;SDS011;10548;47.504;8.248;2023-11-22T08:52:08;3.03;;;2.10;;
20776;SDS011;10548;47.504;8.248;2023-11-22T08:54:36;2.77;;;2.13;;
20776;SDS011;10548;47.504;8.248;2023-11-22T08:57:03;2.83;;;2.17;;
20776;SDS011;10548;47.504;8.248;2023-11-22T08:59:32;5.10;;;2.50;;
20776;SDS011;10548;47.504;8.248;2023-11-22T09:02:05;4.93;;;2.57;;
20776;SDS011;10548;47.504;8.248;2023-11-22T09:04:34;2.80;;;2.17;;
20776;SDS011;10548;47.504;8.248;2023-11-22T09:07:02;2.90;;;2.53;;
20776;SDS011;10548;47.504;8.248;2023-11-22T09:09:29;4.23;;;2.47;;
20776;SDS011;10548;47.504;8.248;2023-11-22T09:11:57;4.00;;;2.50;;
20776;SDS011;10548;47.504;8.248;2023-11-22T09:14:26;4.27;;;2.53;;
20776;SDS011;10548;47.504;8.248;2023-11-22T09:16:54;3.50;;;2.47;;
20776;SDS011;10548;47.504;8.248;2023-11-22T09:19:22;3.40;;;2.33;;
20776;SDS011;10548;47.504;8.248;2023-11-22T09:21:49;3.20;;;2.43;;
20776;SDS011;10548;47.504;8.248;2023-11-22T09:24:17;3.13;;;2.20;;
20776;SDS011;10548;47.504;8.248;2023-11-22T09:26:45;3.37;;;2.47;;
20776;SDS011;10548;47.504;8.248;2023-11-22T09:29:12;3.63;;;2.70;;
20776;SDS011;10548;47.504;8.248;2023-11-22T09:31:40;4.40;;;2.80;;
20776;SDS011;10548;47.504;8.248;2023-11-22T09:34:09;4.43;;;2.87;;
20776;SDS011;10548;47.504;8.248;2023-11-22T09:36:37;3.73;;;2.80;;
20776;SDS011;10548;47.504;8.248;2023-11-22T09:39:05;5.13;;;2.70;;
20776;SDS011;10548;47.504;8.248;2023-11-22T09:41:35;3.17;;;2.30;;
20776;SDS011;10548;47.504;8.248;2023-11-22T09:44:04;3.00;;;2.57;;
20776;SDS011;10548;47.504;8.248;2023-11-22T09:46:32;3.67;;;2.63;;
20776;SDS011;10548;47.504;8.248;2023-11-22T09:49:01;3.27;;;2.60;;
20776;SDS011;10548;47.504;8.248;2023-11-22T09:51:31;3.67;;;2.33;;
20776;SDS011;10548;47.504;8.248;2023-11-22T09:54:00;2.47;;;2.07;;
20776;SDS011;10548;47.504;8.248;2023-11-22T09:56:33;3.37;;;2.37;;
20776;SDS011;10548;47.504;8.248;2023-11-22T09:59:03;3.70;;;2.30;;
20776;SDS011;10548;47.504;8.248;2023-11-22T10:01:31;3.87;;;2.10;;
20776;SDS011;10548;47.504;8.248;2023-11-22T10:04:00;2.70;;;1.70;;
20776;SDS011;10548;47.504;8.248;2023-11-22T10:06:29;2.67;;;2.00;;
20776;SDS011;10548;47.504;8.248;2023-11-22T10:09:01;3.80;;;2.80;;
20776;SDS011;10548;47.504;8.248;2023-11-22T10:11:34;2.60;;;2.10;;
20776;SDS011;10548;47.504;8.248;2023-11-22T10:14:06;5.50;;;2.10;;
20776;SDS011;10548;47.504;8.248;2023-11-22T10:16:33;2.27;;;1.90;;
20776;SDS011;10548;47.504;8.248;2023-11-22T10:19:01;2.10;;;1.73;;
20776;SDS011;10548;47.504;8.248;2023-11-22T10:21:33;2.77;;;1.80;;
20776;SDS011;10548;47.504;8.248;2023-11-22T10:24:02;2.83;;;1.87;;
20776;SDS011;10548;47.504;8.248;2023-11-22T10:26:31;2.47;;;1.87;;
20776;SDS011;10548;47.504;8.248;2023-11-22T10:28:59;2.77;;;1.83;;
20776;SDS011;10548;47.504;8.248;2023-11-22T10:31:27;1.97;;;1.77;;
20776;SDS011;10548;47.504;8.248;2023-11-22T10:33:55;2.10;;;1.60;;
20776;SDS011;10548;47.504;8.248;2023-11-22T10:36:24;2.70;;;1.87;;
20776;SDS011;10548;47.504;8.248;2023-11-22T10:38:53;2.60;;;1.80;;
20776;SDS011;10548;47.504;8.248;2023-11-22T10:41:21;3.00;;;1.80;;
20776;SDS011;10548;47.504;8.248;2023-11-22T10:43:51;2.97;;;1.90;;
20776;SDS011;10548;47.504;8.248;2023-11-22T10:46:29;4.93;;;1.33;;
20776;SDS011;10548;47.504;8.248;2023-11-22T10:48:58;1.97;;;1.40;;
20776;SDS011;10548;47.504;8.248;2023-11-22T10:51:32;3.00;;;1.80;;
20776;SDS011;10548;47.504;8.248;2023-11-22T10:54:00;5.80;;;1.77;;
20776;SDS011;10548;47.504;8.248;2023-11-22T10:56:38;2.53;;;1.70;;
20776;SDS011;10548;47.504;8.248;2023-11-22T10:59:13;1.93;;;1.60;;
20776;SDS011;10548;47.504;8.248;2023-11-22T11:01:45;1.83;;;1.30;;
20776;SDS011;10548;47.504;8.248;2023-11-22T11:04:18;3.93;;;1.50;;
20776;SDS011;10548;47.504;8.248;2023-11-22T11:06:49;1.77;;;1.47;;
20776;SDS011;10548;47.504;8.248;2023-11-22T11:09:18;1.90;;;1.47;;
20776;SDS011;10548;47.504;8.248;2023-11-22T11:11:48;1.70;;;1.43;;
20776;SDS011;10548;47.504;8.248;2023-11-22T11:14:15;3.27;;;1.50;;
20776;SDS011;10548;47.504;8.248;2023-11-22T11:16:44;1.60;;;1.40;;
20776;SDS011;10548;47.504;8.248;2023-11-22T11:19:16;2.03;;;1.50;;
20776;SDS011;10548;47.504;8.248;2023-11-22T11:21:44;1.63;;;1.53;;
20776;SDS011;10548;47.504;8.248;2023-11-22T11:24:12;2.00;;;1.70;;
20776;SDS011;10548;47.504;8.248;2023-11-22T11:26:40;1.90;;;1.70;;
20776;SDS011;10548;47.504;8.248;2023-11-22T11:29:30;1.93;;;1.60;;
20776;SDS011;10548;47.504;8.248;2023-11-22T11:31:59;3.33;;;1.77;;
20776;SDS011;10548;47.504;8.248;2023-11-22T11:34:28;2.57;;;2.07;;
20776;SDS011;10548;47.504;8.248;2023-11-22T11:36:55;3.00;;;1.70;;
20776;SDS011;10548;47.504;8.248;2023-11-22T11:39:26;2.60;;;2.10;;
20776;SDS011;10548;47.504;8.248;2023-11-22T11:42:07;2.73;;;1.90;;
20776;SDS011;10548;47.504;8.248;2023-11-22T11:44:52;3.70;;;2.50;;
20776;SDS011;10548;47.504;8.248;2023-11-22T11:47:30;3.37;;;2.70;;
20776;SDS011;10548;47.504;8.248;2023-11-22T11:49:58;2.30;;;2.00;;
20776;SDS011;10548;47.504;8.248;2023-11-22T11:52:26;2.90;;;2.23;;
20776;SDS011;10548;47.504;8.248;2023-11-22T11:54:54;7.67;;;2.30;;
20776;SDS011;10548;47.504;8.248;2023-11-22T11:57:23;4.53;;;2.43;;
20776;SDS011;10548;47.504;8.248;2023-11-22T11:59:51;5.33;;;2.83;;
20776;SDS011;10548;47.504;8.248;2023-11-22T12:02:21;4.90;;;3.00;;
20776;SDS011;10548;47.504;8.248;2023-11-22T12:04:49;3.93;;;2.33;;
20776;SDS011;10548;47.504;8.248;2023-11-22T12:07:16;4.33;;;2.70;;
20776;SDS011;10548;47.504;8.248;2023-11-22T12:09:44;3.20;;;2.40;;
20776;SDS011;10548;47.504;8.248;2023-11-22T12:12:13;3.97;;;2.57;;
20776;SDS011;10548;47.504;8.248;2023-11-22T12:14:41;4.97;;;2.70;;
20776;SDS011;10548;47.504;8.248;2023-11-22T12:17:11;3.73;;;2.60;;
20776;SDS011;10548;47.504;8.248;2023-11-22T12:19:39;3.40;;;2.70;;
20776;SDS011;10548;47.504;8.248;2023-11-22T12:22:06;5.27;;;2.97;;
20776;SDS011;10548;47.504;8.248;2023-11-22T12:24:34;5.27;;;2.60;;
20776;SDS011;10548;47.504;8.248;2023-11-22T12:27:02;5.40;;;2.50;;
20776;SDS011;10548;47.504;8.248;2023-11-22T12:29:30;3.20;;;2.40;;
20776;SDS011;10548;47.504;8.248;2023-11-22T12:31:58;3.40;;;2.80;;
20776;SDS011;10548;47.504;8.248;2023-11-22T12:34:26;3.77;;;2.57;;
20776;SDS011;10548;47.504;8.248;2023-11-22T12:36:53;3.83;;;2.70;;
20776;SDS011;10548;47.504;8.248;2023-11-22T12:39:22;4.73;;;2.50;;
20776;SDS011;10548;47.504;8.248;2023-11-22T12:41:50;3.77;;;2.80;;
20776;SDS011;10548;47.504;8.248;2023-11-22T12:44:32;3.87;;;2.80;;
20776;SDS011;10548;47.504;8.248;2023-11-22T12:47:00;4.00;;;2.67;;
20776;SDS011;10548;47.504;8.248;2023-11-22T12:49:44;7.20;;;2.80;;
20776;SDS011;10548;47.504;8.248;2023-11-22T12:52:16;3.27;;;2.40;;
20776;SDS011;10548;47.504;8.248;2023-11-22T12:54:44;3.80;;;2.60;;
20776;SDS011;10548;47.504;8.248;2023-11-22T12:57:14;4.53;;;2.90;;
20776;SDS011;10548;47.504;8.248;2023-11-22T12:59:45;5.53;;;3.03;;
20776;SDS011;10548;47.504;8.248;2023-11-22T13:02:12;4.60;;;2.83;;
20776;SDS011;10548;47.504;8.248;2023-11-22T13:04:42;3.57;;;2.40;;
20776;SDS011;10548;47.504;8.248;2023-11-22T13:07:12;3.27;;;2.67;;
20776;SDS011;10548;47.504;8.248;2023-11-22T13:09:40;4.53;;;2.83;;
20776;SDS011;10548;47.504;8.248;2023-11-22T13:12:07;4.77;;;2.80;;
20776;SDS011;10548;47.504;8.248;2023-11-22T13:14:35;4.63;;;2.80;;
20776;SDS011;10548;47.504;8.248;2023-11-22T13:17:05;4.33;;;3.00;;
20776;SDS011;10548;47.504;8.248;2023-11-22T13:19:35;7.10;;;2.87;;
20776;SDS011;10548;47.504;8.248;2023-11-22T13:22:03;4.57;;;2.80;;
20776;SDS011;10548;47.504;8.248;2023-11-22T13:24:32;4.37;;;2.57;;
20776;SDS011;10548;47.504;8.248;2023-11-22T13:26:59;3.70;;;2.60;;
20776;SDS011;10548;47.504;8.248;2023-11-22T13:29:27;5.00;;;3.17;;
20776;SDS011;10548;47.504;8.248;2023-11-22T13:31:54;3.70;;;2.80;;
20776;SDS011;10548;47.504;8.248;2023-11-22T13:34:22;3.73;;;2.90;;
20776;SDS011;10548;47.504;8.248;2023-11-22T13:36:49;3.23;;;2.40;;
20776;SDS011;10548;47.504;8.248;2023-11-22T13:39:17;5.70;;;3.17;;
20776;SDS011;10548;47.504;8.248;2023-11-22T13:41:44;4.13;;;2.80;;
20776;SDS011;10548;47.504;8.248;2023-11-22T13:44:12;3.27;;;2.30;;
20776;SDS011;10548;47.504;8.248;2023-11-22T13:46:40;4.70;;;2.67;;
20776;SDS011;10548;47.504;8.248;2023-11-22T13:49:08;2.90;;;2.47;;
20776;SDS011;10548;47.504;8.248;2023-11-22T13:51:35;3.50;;;2.90;;
20776;SDS011;10548;47.504;8.248;2023-11-22T13:54:03;3.97;;;2.90;;
20776;SDS011;10548;47.504;8.248;2023-11-22T13:56:31;6.17;;;2.80;;
20776;SDS011;10548;47.504;8.248;2023-11-22T13:58:59;4.07;;;2.67;;
20776;SDS011;10548;47.504;8.248;2023-11-22T14:01:28;4.57;;;2.80;;
20776;SDS011;10548;47.504;8.248;2023-11-22T14:03:55;3.20;;;2.60;;
20776;SDS011;10548;47.504;8.248;2023-11-22T14:06:23;5.27;;;3.80;;
20776;SDS011;10548;47.504;8.248;2023-11-22T14:08:51;3.60;;;2.80;;
20776;SDS011;10548;47.504;8.248;2023-11-22T14:11:19;3.27;;;2.80;;
20776;SDS011;10548;47.504;8.248;2023-11-22T14:13:47;4.00;;;2.80;;
20776;SDS011;10548;47.504;8.248;2023-11-22T14:16:15;4.60;;;3.50;;
20776;SDS011;10548;47.504;8.248;2023-11-22T14:18:43;4.43;;;2.97;;
20776;SDS011;10548;47.504;8.248;2023-11-22T14:21:11;4.80;;;2.33;;
20776;SDS011;10548;47.504;8.248;2023-11-22T14:23:39;6.37;;;2.97;;
20776;SDS011;10548;47.504;8.248;2023-11-22T14:26:06;6.30;;;4.77;;
20776;SDS011;10548;47.504;8.248;2023-11-22T14:28:34;3.83;;;2.70;;
20776;SDS011;10548;47.504;8.248;2023-11-22T14:31:01;4.57;;;3.43;;
20776;SDS011;10548;47.504;8.248;2023-11-22T14:33:30;4.03;;;2.93;;
20776;SDS011;10548;47.504;8.248;2023-11-22T14:35:59;3.60;;;2.90;;
20776;SDS011;10548;47.504;8.248;2023-11-22T14:38:27;4.80;;;2.47;;
20776;SDS011;10548;47.504;8.248;2023-11-22T14:40:55;4.53;;;2.97;;
20776;SDS011;10548;47.504;8.248;2023-11-22T14:43:24;2.97;;;2.30;;
20776;SDS011;10548;47.504;8.248;2023-11-22T14:45:51;5.57;;;3.60;;
20776;SDS011;10548;47.504;8.248;2023-11-22T14:48:20;5.00;;;3.67;;
20776;SDS011;10548;47.504;8.248;2023-11-22T14:50:49;4.90;;;2.97;;
20776;SDS011;10548;47.504;8.248;2023-11-22T14:53:18;3.70;;;2.53;;
20776;SDS011;10548;47.504;8.248;2023-11-22T14:55:46;4.30;;;2.90;;